createdAt,value
2018-04-18T00:00:55.825Z,13.6
2018-04-18T00:02:15.697Z,13.6
2018-04-18T00:03:35.528Z,13.6
2018-04-18T00:04:57.905Z,13.5
2018-04-18T00:06:20.256Z,13.6
2018-04-18T00:07:42.645Z,13.6
2018-04-18T00:09:02.514Z,13.4
2018-04-18T00:10:22.376Z,13.6
2018-04-18T00:11:42.234Z,13.6
2018-04-18T00:13:09.662Z,13.5
2018-04-18T00:14:32.016Z,13.4
2018-04-18T00:15:51.898Z,13.3
2018-04-18T00:17:11.718Z,13.4
2018-04-18T00:18:34.144Z,13.4
2018-04-18T00:19:56.549Z,13.5
2018-04-18T00:21:16.409Z,13.5
2018-04-18T00:22:36.255Z,13.5
2018-04-18T00:23:58.621Z,13.4
2018-04-18T00:25:18.445Z,13.4
2018-04-18T00:26:40.796Z,13.5
2018-04-18T00:28:03.176Z,13.5
2018-04-18T00:29:23.052Z,13.5
2018-04-18T00:30:42.902Z,13.5
2018-04-18T00:32:15.442Z,13.5
2018-04-18T00:33:35.277Z,13.4
2018-04-18T00:34:55.102Z,13.5
2018-04-18T00:36:14.936Z,13.4
2018-04-18T00:37:37.324Z,13.5
2018-04-18T00:38:57.170Z,13.5
2018-04-18T00:40:24.598Z,13.3
2018-04-18T00:41:44.423Z,13.5
2018-04-18T00:43:04.257Z,13.5
2018-04-18T00:44:24.125Z,13.5
2018-04-18T00:45:43.945Z,13.3
2018-04-18T00:47:06.336Z,13.4
2018-04-18T00:48:31.251Z,13.5
2018-04-18T00:49:58.700Z,13.6
2018-04-18T00:51:26.133Z,13.4
2018-04-18T00:52:48.490Z,13.4
2018-04-18T00:54:08.344Z,13.5
2018-04-18T00:55:28.168Z,13.4
2018-04-18T00:56:55.601Z,13.4
2018-04-18T00:58:15.452Z,13.3
2018-04-18T00:59:35.274Z,13.3
2018-04-18T01:00:55.148Z,13.4
2018-04-18T01:02:14.966Z,13.5
2018-04-18T01:03:34.787Z,13.5
2018-04-18T01:04:54.638Z,13.3
2018-04-18T01:06:17.006Z,13.4
2018-04-18T01:07:39.362Z,13.3
2018-04-18T01:08:59.173Z,13.5
2018-04-18T01:10:19.002Z,13.4
2018-04-18T01:11:41.368Z,13.4
2018-04-18T01:13:03.774Z,13.3
2018-04-18T01:14:28.709Z,13.2
2018-04-18T01:15:53.628Z,13.5
2018-04-18T01:17:13.467Z,13.4
2018-04-18T01:18:35.816Z,13.4
2018-04-18T01:19:55.678Z,13.4
2018-04-18T01:21:20.576Z,13.4
2018-04-18T01:22:42.946Z,13.3
2018-04-18T01:24:07.893Z,13.3
2018-04-18T01:25:30.256Z,13.2
2018-04-18T01:26:50.108Z,13.3
2018-04-18T01:28:09.938Z,13.3
2018-04-18T01:29:29.762Z,13.3
2018-04-18T01:30:49.589Z,13.3
2018-04-18T01:32:09.406Z,13.3
2018-04-18T01:33:31.753Z,13.3
2018-04-18T01:34:51.664Z,13.2
2018-04-18T01:36:14.083Z,13.3
2018-04-18T01:37:33.928Z,13.3
2018-04-18T01:38:56.281Z,13.3
2018-04-18T01:40:16.098Z,13.3
2018-04-18T01:41:41.032Z,13.2
2018-04-18T01:43:00.853Z,13.2
2018-04-18T01:44:20.681Z,13.2
2018-04-18T01:45:45.593Z,13.1
2018-04-18T01:47:07.957Z,13.2
2018-04-18T01:48:27.802Z,13.2
2018-04-18T01:49:52.703Z,13.3
2018-04-18T01:51:12.603Z,13.2
2018-04-18T01:52:32.454Z,13.2
2018-04-18T01:53:52.328Z,13.1
2018-04-18T01:55:12.183Z,13.2
2018-04-18T01:56:32.038Z,13.1
2018-04-18T01:57:51.911Z,13.1
2018-04-18T01:59:14.256Z,13.2
2018-04-18T02:00:36.612Z,13.1
2018-04-18T02:01:56.507Z,13
2018-04-18T02:03:16.334Z,13
2018-04-18T02:04:38.690Z,12.8
2018-04-18T02:05:58.522Z,13
2018-04-18T02:07:18.350Z,13.1
2018-04-18T02:08:43.242Z,13
2018-04-18T02:10:03.060Z,13.1
2018-04-18T02:11:22.888Z,13.1
2018-04-18T02:12:42.734Z,13.2
2018-04-18T02:14:02.600Z,13
2018-04-18T02:15:30.040Z,13
2018-04-18T02:16:49.864Z,13.2
2018-04-18T02:18:09.694Z,13.2
2018-04-18T02:19:29.542Z,13.2
2018-04-18T02:20:54.411Z,13.1
2018-04-18T02:22:14.256Z,13.2
2018-04-18T02:23:36.604Z,13.3
2018-04-18T02:24:56.462Z,13.3
2018-04-18T02:26:18.878Z,13.2
2018-04-18T02:27:38.715Z,13.2
2018-04-18T02:28:58.537Z,13.2
2018-04-18T02:30:18.394Z,13.2
2018-04-18T02:31:45.829Z,13.1
2018-04-18T02:33:20.846Z,13.1
2018-04-18T02:34:45.782Z,13.1
2018-04-18T02:36:13.199Z,13
2018-04-18T02:37:35.593Z,13
2018-04-18T02:38:57.938Z,13.1
2018-04-18T02:40:17.764Z,13.1
2018-04-18T02:41:37.629Z,13.1
2018-04-18T02:42:57.481Z,13.2
2018-04-18T02:44:17.365Z,13.2
2018-04-18T02:45:37.267Z,13.1
2018-04-18T02:46:57.165Z,13.1
2018-04-18T02:48:19.523Z,13.1
2018-04-18T02:49:41.932Z,13.1
2018-04-18T02:51:04.316Z,13.1
2018-04-18T02:52:26.707Z,13.1
2018-04-18T02:53:46.547Z,13.2
2018-04-18T02:55:06.380Z,13.1
2018-04-18T02:56:26.256Z,13.2
2018-04-18T02:57:53.709Z,13.1
2018-04-18T02:59:13.531Z,13.1
2018-04-18T03:00:33.359Z,13.2
2018-04-18T03:02:00.802Z,13.1
2018-04-18T03:03:20.619Z,13.1
2018-04-18T03:04:40.475Z,13.1
2018-04-18T03:06:02.887Z,13.2
2018-04-18T03:07:22.707Z,13.1
2018-04-18T03:08:42.520Z,13
2018-04-18T03:10:02.420Z,13
2018-04-18T03:11:24.773Z,13
2018-04-18T03:12:44.600Z,13.1
2018-04-18T03:14:04.418Z,13
2018-04-18T03:15:31.852Z,13
2018-04-18T03:16:54.254Z,13
2018-04-18T03:18:14.089Z,13
2018-04-18T03:19:33.910Z,13.1
2018-04-18T03:20:56.285Z,13.1
2018-04-18T03:22:16.169Z,13
2018-04-18T03:23:36.035Z,13.1
2018-04-18T03:24:58.397Z,13.1
2018-04-18T03:26:18.215Z,13.2
2018-04-18T03:27:38.036Z,13.1
2018-04-18T03:28:57.872Z,13.2
2018-04-18T03:30:27.828Z,13.1
2018-04-18T03:31:47.695Z,13.1
2018-04-18T03:33:07.518Z,12.9
2018-04-18T03:34:32.441Z,13
2018-04-18T03:35:54.850Z,13
2018-04-18T03:37:14.720Z,13.1
2018-04-18T03:38:37.100Z,13
2018-04-18T03:39:56.972Z,13.1
2018-04-18T03:41:16.841Z,13.1
2018-04-18T03:42:39.204Z,13.1
2018-04-18T03:44:01.592Z,13.1
2018-04-18T03:45:21.440Z,13.1
2018-04-18T03:46:41.308Z,13.1
2018-04-18T03:48:06.202Z,13.1
2018-04-18T03:49:26.085Z,13.1
2018-04-18T03:50:45.953Z,13.1
2018-04-18T03:52:05.802Z,13
2018-04-18T03:53:30.724Z,12.9
2018-04-18T03:54:50.551Z,13.1
2018-04-18T03:56:10.426Z,13.1
2018-04-18T03:57:37.840Z,13.1
2018-04-18T03:59:07.791Z,13.1
2018-04-18T04:00:27.605Z,13.1
2018-04-18T04:01:47.438Z,12.8
2018-04-18T04:03:07.335Z,12.8
2018-04-18T04:04:29.692Z,12.8
2018-04-18T04:05:52.066Z,12.8
2018-04-18T04:07:11.911Z,12.9
2018-04-18T04:08:49.462Z,12.9
2018-04-18T04:10:09.337Z,12.9
2018-04-18T04:11:29.161Z,12.7
2018-04-18T04:12:48.980Z,12.6
2018-04-18T04:14:11.403Z,12.7
2018-04-18T04:15:31.287Z,12.7
2018-04-18T04:16:56.184Z,12.5
2018-04-18T04:18:26.131Z,12.5
2018-04-18T04:19:45.983Z,12.4
2018-04-18T04:21:10.784Z,12.6
2018-04-18T04:22:30.630Z,12.4
2018-04-18T04:23:53.030Z,12.5
2018-04-18T04:25:15.379Z,12.7
2018-04-18T04:26:35.216Z,12.7
2018-04-18T04:27:55.045Z,12.9
2018-04-18T04:29:17.451Z,12.9
2018-04-18T04:30:37.326Z,12.9
2018-04-18T04:31:59.686Z,12.8
2018-04-18T04:33:19.560Z,12.7
2018-04-18T04:34:39.386Z,12.8
2018-04-18T04:35:59.253Z,12.8
2018-04-18T04:37:19.072Z,12.8
2018-04-18T04:38:51.559Z,12.9
2018-04-18T04:40:11.413Z,12.9
2018-04-18T04:41:33.754Z,12.9
2018-04-18T04:42:53.595Z,13
2018-04-18T04:44:13.440Z,12.9
2018-04-18T04:45:33.316Z,12.9
2018-04-18T04:46:53.135Z,12.9
2018-04-18T04:48:12.955Z,13.1
2018-04-18T04:49:35.306Z,13
2018-04-18T04:50:57.684Z,12.9
2018-04-18T04:52:20.032Z,12.9
2018-04-18T04:53:39.906Z,13
2018-04-18T04:55:07.348Z,13
2018-04-18T04:56:27.215Z,13
2018-04-18T04:57:57.185Z,13
2018-04-18T04:59:22.106Z,13
2018-04-18T05:00:41.959Z,13
2018-04-18T05:02:01.851Z,12.9
2018-04-18T05:03:24.215Z,13.1
2018-04-18T05:04:49.114Z,13.2
2018-04-18T05:06:21.643Z,13.3
2018-04-18T05:07:41.536Z,13.3
2018-04-18T05:09:06.467Z,13.2
2018-04-18T05:10:28.853Z,13.1
2018-04-18T05:11:48.696Z,13.1
2018-04-18T05:13:08.516Z,13.1
2018-04-18T05:14:28.337Z,13.1
2018-04-18T05:15:50.700Z,13.2
2018-04-18T05:17:10.523Z,13.3
2018-04-18T05:18:30.343Z,13.4
2018-04-18T05:19:50.169Z,13.4
2018-04-18T05:21:10.009Z,13.3
2018-04-18T05:22:39.987Z,13.4
2018-04-18T05:24:02.392Z,13.2
2018-04-18T05:25:24.759Z,13.4
2018-04-18T05:26:44.580Z,13.4
2018-04-18T05:28:14.542Z,13.6
2018-04-18T05:29:34.369Z,13.6
2018-04-18T05:30:56.832Z,13.4
2018-04-18T05:32:21.797Z,13.6
2018-04-18T05:33:41.638Z,13.5
2018-04-18T05:35:04.010Z,13.5
2018-04-18T05:36:23.887Z,13.6
2018-04-18T05:37:51.332Z,13.5
2018-04-18T05:39:26.425Z,13.5
2018-04-18T05:40:48.781Z,13.5
2018-04-18T05:42:08.603Z,13.5
2018-04-18T05:43:28.429Z,13.6
2018-04-18T05:44:53.322Z,13.6
2018-04-18T05:46:13.173Z,13.5
2018-04-18T05:47:40.571Z,13.5
2018-04-18T05:49:00.393Z,13.5
2018-04-18T05:50:20.211Z,13.6
2018-04-18T05:53:07.088Z,13.5
2018-04-18T05:54:26.911Z,13.4
2018-04-18T05:55:49.277Z,13.6
2018-04-18T05:57:11.658Z,13.5
2018-04-18T05:58:31.536Z,13.4
2018-04-18T05:59:51.383Z,13.5
2018-04-18T06:01:13.736Z,13.4
2018-04-18T06:02:43.692Z,13.6
2018-04-18T06:04:06.073Z,13.5
2018-04-18T06:05:28.477Z,13.6
2018-04-18T06:06:48.299Z,13.6
2018-04-18T06:08:08.182Z,13.6
2018-04-18T06:09:28.031Z,13.6
2018-04-18T06:10:47.857Z,13.7
2018-04-18T06:12:07.682Z,13.6
2018-04-18T06:13:27.523Z,13.6
2018-04-18T06:14:47.408Z,13.6
2018-04-18T06:16:07.243Z,13.6
2018-04-18T06:17:27.063Z,13.6
2018-04-18T06:18:49.405Z,13.5
2018-04-18T06:20:09.236Z,13.6
2018-04-18T06:21:29.119Z,13.7
2018-04-18T06:22:53.994Z,13.6
2018-04-18T06:24:13.823Z,13.7
2018-04-18T06:25:33.640Z,13.7
2018-04-18T06:26:53.462Z,13.8
2018-04-18T06:28:13.297Z,13.7
2018-04-18T06:29:33.184Z,13.7
2018-04-18T06:30:58.072Z,13.7
2018-04-18T06:32:25.493Z,13.7
2018-04-18T06:33:47.906Z,13.7
2018-04-18T06:35:17.874Z,13.7
2018-04-18T06:36:37.701Z,13.7
2018-04-18T06:37:57.524Z,13.8
2018-04-18T06:39:30.026Z,13.8
2018-04-18T06:40:49.864Z,13.8
2018-04-18T06:42:09.730Z,13.7
2018-04-18T06:43:34.603Z,13.8
2018-04-18T06:44:54.461Z,13.9
2018-04-18T06:46:14.284Z,13.8
2018-04-18T06:47:36.690Z,13.9
2018-04-18T06:48:56.588Z,14
2018-04-18T06:50:18.949Z,14
2018-04-18T06:51:43.882Z,14
2018-04-18T06:53:06.264Z,14
2018-04-18T06:54:28.676Z,14.1
2018-04-18T06:55:48.532Z,14.1
2018-04-18T06:57:10.920Z,14
2018-04-18T06:58:30.791Z,14
2018-04-18T06:59:50.654Z,14.1
2018-04-18T07:01:13.060Z,14
2018-04-18T07:02:40.476Z,14
2018-04-18T07:04:00.366Z,14
2018-04-18T07:05:20.248Z,14
2018-04-18T07:06:42.613Z,14.1
2018-04-18T07:08:07.504Z,14.1
2018-04-18T07:09:27.347Z,14.1
2018-04-18T07:10:49.740Z,14.1
2018-04-18T07:12:09.618Z,14.1
2018-04-18T07:13:31.995Z,14.1
2018-04-18T07:14:54.346Z,14.1
2018-04-18T07:16:14.190Z,14.1
2018-04-18T07:17:36.546Z,14.1
2018-04-18T07:18:56.395Z,14.2
2018-04-18T07:20:23.872Z,14.1
2018-04-18T07:21:43.739Z,14.2
2018-04-18T07:23:06.144Z,14.2
2018-04-18T07:24:25.994Z,14.1
2018-04-18T07:25:45.878Z,14.2
2018-04-18T07:27:08.282Z,14.2
2018-04-18T07:28:28.104Z,14.3
2018-04-18T07:29:47.947Z,14.3
2018-04-18T07:31:07.775Z,14.3
2018-04-18T07:32:30.157Z,14.4
2018-04-18T07:33:49.981Z,14.3
2018-04-18T07:35:09.805Z,14.3
2018-04-18T07:36:32.205Z,14.3
2018-04-18T07:37:52.072Z,14.3
2018-04-18T07:39:11.942Z,14.3
2018-04-18T07:40:31.771Z,14.2
2018-04-18T07:41:51.631Z,14.3
2018-04-18T07:43:13.998Z,14.3
2018-04-18T07:44:36.360Z,14.3
2018-04-18T07:45:56.218Z,14.3
2018-04-18T07:47:18.576Z,14.4
2018-04-18T07:48:38.399Z,14.4
2018-04-18T07:50:00.803Z,14.4
2018-04-18T07:51:25.766Z,14.4
2018-04-18T07:52:45.621Z,14.4
2018-04-18T07:54:07.984Z,14.4
2018-04-18T07:55:27.865Z,14.4
2018-04-18T07:56:50.226Z,14.5
2018-04-18T07:58:10.067Z,14.6
2018-04-18T07:59:29.890Z,14.6
2018-04-18T08:00:49.723Z,14.7
2018-04-18T08:02:09.587Z,14.7
2018-04-18T08:03:29.409Z,14.7
2018-04-18T08:04:49.244Z,14.7
2018-04-18T08:06:11.648Z,14.7
2018-04-18T08:07:31.522Z,14.8
2018-04-18T08:08:51.346Z,14.8
2018-04-18T08:10:11.205Z,14.8
2018-04-18T08:11:41.218Z,14.8
2018-04-18T08:13:01.073Z,14.8
2018-04-18T08:14:26.019Z,14.8
2018-04-18T08:15:48.384Z,14.8
2018-04-18T08:17:08.207Z,14.8
2018-04-18T08:18:33.140Z,14.9
2018-04-18T08:19:52.996Z,15
2018-04-18T08:21:12.822Z,15.1
2018-04-18T08:22:37.731Z,15.1
2018-04-18T08:23:57.554Z,15.1
2018-04-18T08:25:19.926Z,15.1
2018-04-18T08:26:39.753Z,15
2018-04-18T08:27:59.619Z,15
2018-04-18T08:29:19.476Z,15
2018-04-18T08:30:39.347Z,15
2018-04-18T08:31:59.211Z,15.1
2018-04-18T08:33:21.564Z,15
2018-04-18T08:34:43.917Z,15
2018-04-18T08:36:03.756Z,15.1
2018-04-18T08:37:23.576Z,15.1
2018-04-18T08:38:43.401Z,15.1
2018-04-18T08:40:05.791Z,15.1
2018-04-18T08:41:25.642Z,15
2018-04-18T08:42:48.034Z,15.1
2018-04-18T08:44:07.857Z,15.2
2018-04-18T08:45:30.232Z,15.2
2018-04-18T08:46:50.068Z,15.2
2018-04-18T08:48:09.898Z,15.2
2018-04-18T08:49:29.778Z,15.2
2018-04-18T08:50:49.610Z,15.2
2018-04-18T08:52:09.432Z,15.2
2018-04-18T08:53:31.808Z,15.2
2018-04-18T08:54:56.738Z,15.2
2018-04-18T08:56:16.571Z,15.2
2018-04-18T08:57:36.391Z,15.3
2018-04-18T08:58:56.253Z,15.3
2018-04-18T09:00:21.136Z,15.3
2018-04-18T09:01:41.010Z,15.3
2018-04-18T09:03:03.364Z,15.3
2018-04-18T09:04:25.755Z,15.3
2018-04-18T09:05:53.211Z,15.3
2018-04-18T09:07:15.605Z,15.3
2018-04-18T09:08:35.498Z,15.3
2018-04-18T09:09:57.864Z,15.4
2018-04-18T09:11:20.245Z,15.4
2018-04-18T09:12:42.668Z,15.4
2018-04-18T09:14:02.489Z,15.4
2018-04-18T09:15:22.362Z,15.4
2018-04-18T09:16:49.815Z,15.4
2018-04-18T09:18:09.719Z,15.4
2018-04-18T09:19:29.547Z,15.5
2018-04-18T09:20:49.414Z,15.5
2018-04-18T09:22:09.255Z,15.4
2018-04-18T09:23:29.071Z,15.5
2018-04-18T09:24:53.959Z,15.5
2018-04-18T09:26:13.795Z,15.6
2018-04-18T09:27:36.147Z,15.6
2018-04-18T09:28:58.527Z,15.5
2018-04-18T09:30:18.355Z,15.4
2018-04-18T09:31:38.217Z,15.5
2018-04-18T09:33:00.624Z,15.6
2018-04-18T09:34:23.002Z,15.6
2018-04-18T09:35:42.850Z,15.6
2018-04-18T09:37:05.239Z,15.6
2018-04-18T09:38:25.099Z,15.6
2018-04-18T09:39:45.029Z,15.5
2018-04-18T09:41:12.468Z,15.5
2018-04-18T09:42:32.293Z,15.6
2018-04-18T09:44:04.759Z,15.6
2018-04-18T09:45:24.621Z,15.6
2018-04-18T09:46:44.444Z,15.6
2018-04-18T09:48:06.836Z,15.7
2018-04-18T09:49:29.214Z,15.7
2018-04-18T09:50:49.039Z,15.7
2018-04-18T09:52:11.389Z,15.7
2018-04-18T09:53:31.234Z,15.7
2018-04-18T09:54:53.653Z,15.7
2018-04-18T09:56:15.998Z,15.7
2018-04-18T09:57:40.897Z,15.8
2018-04-18T09:59:00.749Z,15.8
2018-04-18T10:00:20.653Z,15.8
2018-04-18T10:01:40.510Z,15.8
2018-04-18T10:03:00.358Z,15.8
2018-04-18T10:04:20.264Z,15.8
2018-04-18T10:05:45.210Z,15.8
2018-04-18T10:07:07.568Z,15.8
2018-04-18T10:08:32.493Z,15.8
2018-04-18T10:09:52.376Z,15.8
2018-04-18T10:11:14.772Z,15.8
2018-04-18T10:12:34.597Z,15.8
2018-04-18T10:13:57.033Z,15.8
2018-04-18T10:15:21.911Z,15.9
2018-04-18T10:16:49.334Z,15.9
2018-04-18T10:18:14.212Z,15.9
2018-04-18T10:19:36.591Z,15.9
2018-04-18T10:20:56.481Z,15.9
2018-04-18T10:22:16.348Z,15.9
2018-04-18T10:23:36.168Z,16
2018-04-18T10:24:58.531Z,16
2018-04-18T10:26:20.918Z,15.9
2018-04-18T10:27:40.735Z,16
2018-04-18T10:29:00.588Z,16
2018-04-18T10:30:20.440Z,16
2018-04-18T10:31:40.300Z,16.1
2018-04-18T10:33:02.659Z,16.1
2018-04-18T10:34:22.491Z,16
2018-04-18T10:35:42.354Z,16
2018-04-18T10:37:12.309Z,16.1
2018-04-18T10:38:32.183Z,16
2018-04-18T10:39:54.533Z,16.1
2018-04-18T10:41:22.002Z,16.1
2018-04-18T10:42:46.893Z,16.1
2018-04-18T10:44:06.764Z,16.1
2018-04-18T10:45:29.151Z,16.1
2018-04-18T10:46:54.049Z,16.1
2018-04-18T10:48:21.508Z,16.1
2018-04-18T10:49:41.323Z,16.1
2018-04-18T10:51:03.685Z,16.1
2018-04-18T10:52:23.508Z,16.1
2018-04-18T10:53:45.909Z,16.1
2018-04-18T10:55:05.728Z,16.1
2018-04-18T10:56:33.191Z,16.2
2018-04-18T10:57:53.023Z,16.2
2018-04-18T10:59:17.941Z,16.2
2018-04-18T11:00:40.364Z,16.2
2018-04-18T11:02:00.216Z,16.1
2018-04-18T11:03:27.670Z,16.1
2018-04-18T11:04:50.062Z,16.1
2018-04-18T11:06:09.919Z,16.1
2018-04-18T11:07:32.316Z,16.1
2018-04-18T11:08:52.134Z,16.1
2018-04-18T11:10:11.996Z,16.1
2018-04-18T11:11:31.825Z,16.1
2018-04-18T11:12:51.670Z,16.1
2018-04-18T11:14:11.536Z,16.1
2018-04-18T11:15:38.950Z,16.1
2018-04-18T11:17:01.343Z,16.2
2018-04-18T11:18:28.785Z,16.2
2018-04-18T11:19:48.638Z,16.1
2018-04-18T11:21:10.998Z,16.3
2018-04-18T11:22:30.818Z,16.2
2018-04-18T11:23:50.639Z,16.3
2018-04-18T11:25:10.495Z,16.2
2018-04-18T11:26:30.404Z,16.2
2018-04-18T11:27:50.259Z,16.2
2018-04-18T11:29:12.656Z,16.5
2018-04-18T11:30:37.529Z,16.5
2018-04-18T11:31:59.964Z,16.5
2018-04-18T11:33:24.935Z,16.3
2018-04-18T11:34:52.368Z,16.3
2018-04-18T11:36:17.272Z,16.4
2018-04-18T11:37:37.119Z,16.3
2018-04-18T11:38:56.939Z,16.3
2018-04-18T11:40:16.761Z,16.3
2018-04-18T11:41:39.140Z,16.4
2018-04-18T11:42:59.016Z,16.4
2018-04-18T11:44:21.377Z,16.3
2018-04-18T11:45:56.411Z,16.4
2018-04-18T11:47:16.241Z,16.4
2018-04-18T11:48:38.599Z,16.4
2018-04-18T11:50:03.545Z,16.5
2018-04-18T11:51:25.970Z,16.5
2018-04-18T11:52:45.798Z,16.6
2018-04-18T11:54:05.658Z,16.6
2018-04-18T11:55:25.483Z,16.7
2018-04-18T11:56:47.897Z,16.9
2018-04-18T11:58:07.721Z,16.8
2018-04-18T11:59:30.100Z,16.5
2018-04-18T12:01:00.076Z,16.6
2018-04-18T12:02:24.991Z,17.6
2018-04-18T12:03:47.381Z,17.1
2018-04-18T12:05:09.794Z,17.2
2018-04-18T12:06:29.669Z,18.7
2018-04-18T12:07:52.021Z,18.8
2018-04-18T12:09:11.841Z,18.8
2018-04-18T12:10:34.191Z,18.9
2018-04-18T12:11:56.612Z,19.2
2018-04-18T12:13:16.434Z,19.4
2018-04-18T12:14:36.263Z,19.5
2018-04-18T12:15:56.106Z,19.6
2018-04-18T12:17:15.944Z,19.7
2018-04-18T12:18:38.297Z,19.8
2018-04-18T12:19:58.121Z,19.9
2018-04-18T12:21:17.970Z,20
2018-04-18T12:22:40.361Z,20.1
2018-04-18T12:24:02.709Z,20.2
2018-04-18T12:25:25.094Z,20.3
2018-04-18T12:26:50.070Z,20.4
2018-04-18T12:28:09.940Z,20.5
2018-04-18T12:29:32.286Z,20.5
2018-04-18T12:30:52.129Z,20.6
2018-04-18T12:32:11.956Z,20.7
2018-04-18T12:33:36.865Z,20.7
2018-04-18T12:34:56.685Z,20.8
2018-04-18T12:36:21.568Z,20.9
2018-04-18T12:37:41.408Z,21
2018-04-18T12:39:01.254Z,21
2018-04-18T12:40:26.194Z,21
2018-04-18T12:41:48.548Z,21.1
2018-04-18T12:43:10.905Z,21.2
2018-04-18T12:44:30.786Z,21.2
2018-04-18T12:45:50.642Z,21.4
2018-04-18T12:47:20.581Z,21.5
2018-04-18T12:48:40.404Z,21.5
2018-04-18T12:50:00.224Z,21.6
2018-04-18T12:51:20.083Z,21.7
2018-04-18T12:52:42.448Z,21.7
2018-04-18T12:54:02.296Z,21.8
2018-04-18T12:55:29.748Z,21.8
2018-04-18T12:56:49.596Z,21.7
2018-04-18T12:58:09.486Z,21.7
2018-04-18T12:59:36.968Z,21.7
2018-04-18T13:00:59.382Z,21.8
2018-04-18T13:02:19.233Z,21.8
2018-04-18T13:03:41.602Z,21.9
2018-04-18T13:05:04.029Z,21.8
2018-04-18T13:06:26.436Z,22
2018-04-18T13:07:46.279Z,22.1
2018-04-18T13:09:08.678Z,22
2018-04-18T13:10:28.507Z,22.1
2018-04-18T13:11:55.921Z,22
2018-04-18T13:13:23.339Z,22
2018-04-18T13:14:43.158Z,22.1
2018-04-18T13:16:10.621Z,21.9
2018-04-18T13:17:33.029Z,22.1
2018-04-18T13:18:55.414Z,22.2
2018-04-18T13:20:17.787Z,22.2
2018-04-18T13:21:40.192Z,22.4
2018-04-18T13:23:02.562Z,22.3
2018-04-18T13:24:27.448Z,22.3
2018-04-18T13:25:52.331Z,22.3
2018-04-18T13:27:12.149Z,22.4
2018-04-18T13:28:32.027Z,22.3
2018-04-18T13:29:54.424Z,22.5
2018-04-18T13:31:29.486Z,22.6
2018-04-18T13:32:56.892Z,22.6
2018-04-18T13:34:21.781Z,22.6
2018-04-18T13:35:41.614Z,22.5
2018-04-18T13:37:01.440Z,22.6
2018-04-18T13:38:21.316Z,22.7
2018-04-18T13:39:41.148Z,22.7
2018-04-18T13:41:01.013Z,22.6
2018-04-18T13:42:30.949Z,22.6
2018-04-18T13:43:50.770Z,22.7
2018-04-18T13:45:13.173Z,22.8
2018-04-18T13:46:33.018Z,22.7
2018-04-18T13:47:55.378Z,22.7
2018-04-18T13:49:15.255Z,22.8
2018-04-18T13:50:35.082Z,22.9
2018-04-18T13:51:59.967Z,22.8
2018-04-18T13:53:19.823Z,22.9
2018-04-18T13:54:39.685Z,22.9
2018-04-18T13:56:07.098Z,23
2018-04-18T13:57:29.498Z,23
2018-04-18T13:58:49.379Z,23
2018-04-18T14:00:11.764Z,22.9
2018-04-18T14:01:34.140Z,22.9
2018-04-18T14:03:04.119Z,22.8
2018-04-18T14:04:23.970Z,23
2018-04-18T14:05:43.797Z,23
2018-04-18T14:07:03.666Z,23.1
2018-04-18T14:08:23.540Z,23.1
2018-04-18T14:09:45.898Z,23.1
2018-04-18T14:11:05.720Z,23.1
2018-04-18T14:12:25.555Z,23.1
2018-04-18T14:13:47.970Z,23.1
2018-04-18T14:15:07.791Z,23.2
2018-04-18T14:16:27.612Z,23.2
2018-04-18T14:17:47.490Z,23.2
2018-04-18T14:19:12.396Z,23.3
2018-04-18T14:20:39.812Z,23.4
2018-04-18T14:22:02.206Z,23.3
2018-04-18T14:23:29.658Z,23.3
2018-04-18T14:24:49.516Z,23.4
2018-04-18T14:26:14.495Z,23.4
2018-04-18T14:27:34.393Z,23.5
2018-04-18T14:28:54.244Z,23.4
2018-04-18T14:30:14.147Z,23.5
2018-04-18T14:31:36.500Z,23.4
2018-04-18T14:32:56.324Z,23.5
2018-04-18T14:34:18.706Z,23.5
2018-04-18T14:35:38.531Z,23.5
2018-04-18T14:37:00.957Z,23.6
2018-04-18T14:38:20.809Z,23.6
2018-04-18T14:39:45.740Z,23.6
2018-04-18T14:41:08.141Z,23.6
2018-04-18T14:42:27.964Z,23.6
2018-04-18T14:43:52.847Z,23.6
2018-04-18T14:45:12.726Z,23.6
2018-04-18T14:46:37.610Z,23.5
2018-04-18T14:47:59.972Z,23.7
2018-04-18T14:49:22.328Z,23.6
2018-04-18T14:50:42.165Z,23.7
2018-04-18T14:52:07.093Z,23.7
2018-04-18T14:53:26.932Z,23.6
2018-04-18T14:54:51.815Z,23.6
2018-04-18T14:56:16.708Z,23.6
2018-04-18T14:57:36.525Z,23.4
2018-04-18T14:58:58.925Z,23.4
2018-04-18T15:00:18.852Z,23.3
2018-04-18T15:01:41.221Z,23.4
2018-04-18T15:03:01.042Z,23.4
2018-04-18T15:04:23.394Z,23.4
2018-04-18T15:05:45.815Z,23.3
2018-04-18T15:07:10.725Z,23.2
2018-04-18T15:08:30.622Z,23.2
2018-04-18T15:09:50.455Z,23.1
2018-04-18T15:11:12.817Z,23
2018-04-18T15:12:37.702Z,22.9
2018-04-18T15:13:57.560Z,22.8
2018-04-18T15:15:17.416Z,22.8
2018-04-18T15:16:37.242Z,22.7
2018-04-18T15:18:04.674Z,22.6
2018-04-18T15:19:27.017Z,22.6
2018-04-18T15:20:46.848Z,22.6
2018-04-18T15:22:06.709Z,22.6
2018-04-18T15:23:29.145Z,22.5
2018-04-18T15:24:54.107Z,22.3
2018-04-18T15:26:19.086Z,22.3
2018-04-18T15:27:38.941Z,22.4
2018-04-18T15:29:03.900Z,22.4
2018-04-18T15:30:23.754Z,22.3
2018-04-18T15:31:46.104Z,22.3
2018-04-18T15:33:05.978Z,22.3
2018-04-18T15:34:35.944Z,22.2
2018-04-18T15:35:55.816Z,22.2
2018-04-18T15:37:18.214Z,22.2
2018-04-18T15:38:38.082Z,22
2018-04-18T15:39:57.916Z,21.8
2018-04-18T15:41:22.845Z,21.8
2018-04-18T15:42:42.666Z,21.8
2018-04-18T15:44:05.040Z,21.7
2018-04-18T15:45:24.913Z,21.7
2018-04-18T15:46:44.731Z,21.6
2018-04-18T15:48:04.548Z,21.6
2018-04-18T15:49:29.469Z,21.6
2018-04-18T15:50:51.882Z,21.6
2018-04-18T15:52:11.727Z,21.5
2018-04-18T15:53:34.111Z,21.5
2018-04-18T15:54:53.981Z,21.5
2018-04-18T15:56:13.828Z,21.6
2018-04-18T15:57:36.197Z,21.5
2018-04-18T15:58:56.075Z,21.4
2018-04-18T16:00:20.961Z,21.3
2018-04-18T16:01:40.838Z,21.3
2018-04-18T16:03:03.183Z,21.3
2018-04-18T16:04:23.061Z,21.3
2018-04-18T16:05:42.968Z,21.3
2018-04-18T16:07:02.787Z,21.3
2018-04-18T16:08:30.248Z,21.2
2018-04-18T16:09:50.070Z,21.1
2018-04-18T16:11:09.940Z,21.1
2018-04-18T16:12:29.819Z,21.1
2018-04-18T16:13:49.692Z,21.1
2018-04-18T16:15:22.222Z,21
2018-04-18T16:16:42.046Z,21
2018-04-18T16:18:01.908Z,21
2018-04-18T16:19:34.425Z,21
2018-04-18T16:21:01.839Z,21
2018-04-18T16:22:21.662Z,20.9
2018-04-18T16:23:44.047Z,20.9
2018-04-18T16:25:03.922Z,20.8
2018-04-18T16:26:23.814Z,20.7
2018-04-18T16:27:43.667Z,20.6
2018-04-18T16:29:03.522Z,20.6
2018-04-18T16:30:23.412Z,20.6
2018-04-18T16:31:43.256Z,20.6
2018-04-18T16:33:05.623Z,20.6
2018-04-18T16:34:27.979Z,20.5
2018-04-18T16:35:50.376Z,20.5
2018-04-18T16:37:10.200Z,20.5
2018-04-18T16:38:47.750Z,20.4
2018-04-18T16:40:07.569Z,20.4
2018-04-18T16:41:29.919Z,20.3
2018-04-18T16:42:49.772Z,20.3
2018-04-18T16:44:12.149Z,20.3
2018-04-18T16:45:32.006Z,20.2
2018-04-18T16:46:54.369Z,20.2
2018-04-18T16:48:16.739Z,20.2
2018-04-18T16:49:39.105Z,20.2
2018-04-18T16:50:58.990Z,20.3
2018-04-18T16:52:18.846Z,20.2
2018-04-18T16:53:38.731Z,20.1
2018-04-18T16:55:03.652Z,20.1
2018-04-18T16:56:43.761Z,20.1
2018-04-18T16:58:06.109Z,20.1
2018-04-18T16:59:25.978Z,20
2018-04-18T17:00:45.854Z,20
2018-04-18T17:02:05.731Z,20.1
2018-04-18T17:03:28.100Z,20
2018-04-18T17:04:47.945Z,20
2018-04-18T17:06:07.819Z,20
2018-04-18T17:07:45.360Z,19.9
2018-04-18T17:09:07.754Z,19.9
2018-04-18T17:10:27.629Z,19.9
2018-04-18T17:11:49.993Z,19.8
2018-04-18T17:13:09.823Z,19.8
2018-04-18T17:14:29.695Z,19.8
2018-04-18T17:15:49.526Z,19.8
2018-04-18T17:17:09.411Z,19.8
2018-04-18T17:18:31.770Z,19.7
2018-04-18T17:19:56.681Z,19.7
2018-04-18T17:21:26.683Z,19.7
2018-04-18T17:22:49.036Z,19.7
2018-04-18T17:24:11.386Z,19.6
2018-04-18T17:25:36.292Z,19.6
2018-04-18T17:27:03.785Z,19.5
2018-04-18T17:28:23.680Z,19.5
2018-04-18T17:29:43.593Z,19.5
2018-04-18T17:31:05.985Z,19.5
2018-04-18T17:32:25.808Z,19.5
2018-04-18T17:33:45.636Z,19.4
2018-04-18T17:35:05.472Z,19.4
2018-04-18T17:36:30.359Z,19.4
2018-04-18T17:37:50.182Z,19.4
2018-04-18T17:39:10.004Z,19.4
2018-04-18T17:40:29.827Z,19.3
2018-04-18T17:41:57.251Z,19.3
2018-04-18T17:43:19.611Z,19.3
2018-04-18T17:44:39.443Z,19.3
2018-04-18T17:46:01.801Z,19.3
2018-04-18T17:47:24.205Z,19.3
2018-04-18T17:48:46.591Z,19.2
2018-04-18T17:50:08.949Z,19.2
2018-04-18T17:51:36.365Z,19.2
2018-04-18T17:52:58.740Z,19.1
2018-04-18T17:54:31.204Z,19.1
2018-04-18T17:55:51.055Z,19.1
2018-04-18T17:57:15.963Z,19
2018-04-18T17:58:38.340Z,19
2018-04-18T17:59:58.202Z,19
2018-04-18T18:01:28.226Z,19
2018-04-18T18:02:55.640Z,18.9
2018-04-18T18:04:20.573Z,18.9
2018-04-18T18:06:03.202Z,18.9
2018-04-18T18:07:33.218Z,18.8
2018-04-18T18:08:53.084Z,18.8
2018-04-18T18:10:12.932Z,18.8
2018-04-18T18:11:32.770Z,18.8
2018-04-18T18:12:52.592Z,18.7
2018-04-18T18:14:12.475Z,18.7
2018-04-18T18:15:34.877Z,18.6
2018-04-18T18:16:54.744Z,18.5
2018-04-18T18:18:19.627Z,18.5
2018-04-18T18:19:42.001Z,18.4
2018-04-18T18:21:06.917Z,18.4